Briefing drone pour Crest

Rechercher une autre localisation

Conditions de vol :


Nous sommes le : Samedi 31 juillet 2021
Il est 11:39 UTC (13:39 LT)

Lever de soleil : 03:58 UTC (05:58 LT)
Coucher de soleil : 19:33 UTC (21:33 LT)

Météo

L'essentiel des conditions de vol

VIGILANCE MÉTÉO FRANCE - Drôme (26)
Vigilance Jaune : Orages
CARTES DES FRONTS
METAR de LFLU
LFLU 311130Z AUTO 36014KT 9999 SCT036 BKN170 BKN200 24/17 Q1011

Date d'émission: 31/07/2021
Heure d'émission: 11:30 UTC
Vent: 360° pour 14 KT (26 km/h)
Visibilité horizontale: > 10 km
Plafond :
- Nuages épars à 3600ft (1097m)
- Nuages morcelés à 17000ft (5182m)
- Nuages morcelés à 20000ft (6096m)
Température: 24 °C
Point de rosée: 17 °C
Humidité: 65%
Pression (QNH): 1011 hPa
Prévision 24h pour Valence (15 km)
Vent : 19° pour 3 KT (9 km/h)
Temperature Maxi: 15 °C
Temperature Min: 15 °C
Humidité : 88%
Condition : Couvert



Warning: count(): Parameter must be an array or an object that implements Countable in /homepages/6/d509196549/htdocs/droneoxygene/briefing.php on line 743
WEBCAM POUR CREST

Réglementation

Voler en sécurité

CARTES AERONAUTIQUE 1/500.000
CARTES VAC (LFLU)
SUP AIP




Chargement des AIP...
NOTAM (CREST + Terrain à proximité / FIR )




Chargement des NOTAMS...
CONTACT PREFECTURE 26
Drôme (26) : ddt-satem@drome.gouv.fr


Avertissement : Les données mises à disposition sont indicatives. Oxygène Drone ne pourra être tenu responsable de dégâts causés aux biens et aux personnes.